createdAt,value
2022-11-06T00:01:15.975Z,22.90
2022-11-06T00:03:48.657Z,24.80
2022-11-06T00:09:11.220Z,26.40
2022-11-06T00:11:44.365Z,27.10
2022-11-06T00:14:17.034Z,23.70
2022-11-06T00:19:21.187Z,25.20
2022-11-06T00:24:24.492Z,23.60
2022-11-06T00:26:57.071Z,24.40
2022-11-06T00:29:29.712Z,24.70
2022-11-06T00:32:37.638Z,25.10
2022-11-06T00:35:11.119Z,24.10
2022-11-06T00:37:43.703Z,22.50
2022-11-06T00:40:17.305Z,25.30
2022-11-06T00:42:49.942Z,22.90
2022-11-06T00:47:53.548Z,24.80
2022-11-06T00:50:26.634Z,27.60
2022-11-06T00:52:59.188Z,25.70
2022-11-06T00:57:57.587Z,26.70
2022-11-06T01:00:30.075Z,28.30
2022-11-06T01:03:02.559Z,25.60
2022-11-06T01:05:35.551Z,25.50
2022-11-06T01:08:08.123Z,27.30
2022-11-06T01:10:41.414Z,26.40
2022-11-06T01:13:13.827Z,26.50
2022-11-06T01:15:46.206Z,25.20
2022-11-06T01:18:18.639Z,28.00
2022-11-06T01:20:51.348Z,25.90
2022-11-06T01:23:24.121Z,25.60
2022-11-06T01:26:08.141Z,22.70
2022-11-06T01:28:41.632Z,24.20
2022-11-06T01:31:16.302Z,25.10
2022-11-06T01:33:49.286Z,24.30
2022-11-06T01:36:22.685Z,25.80
2022-11-06T01:43:20.327Z,23.90
2022-11-06T01:45:54.420Z,26.40
2022-11-06T01:48:28.970Z,24.30
2022-11-06T01:51:01.819Z,27.00
2022-11-06T01:53:35.097Z,27.80
2022-11-06T01:56:09.749Z,26.70
2022-11-06T01:58:44.386Z,27.10
2022-11-06T02:01:16.937Z,27.80
2022-11-06T02:06:23.245Z,24.30
2022-11-06T02:08:55.609Z,25.00
2022-11-06T02:11:28.147Z,24.70
2022-11-06T02:14:06.947Z,26.10
2022-11-06T02:16:43.691Z,25.40
2022-11-06T02:19:37.587Z,23.80
2022-11-06T02:22:22.775Z,21.90
2022-11-06T02:25:19.936Z,22.20
2022-11-06T02:27:56.161Z,24.20
2022-11-06T02:30:28.624Z,18.60
2022-11-06T02:33:03.044Z,21.90
2022-11-06T02:35:38.336Z,23.90
2022-11-06T02:38:12.706Z,28.00
2022-11-06T02:40:48.760Z,26.00
2022-11-06T02:43:22.327Z,26.20
2022-11-06T02:45:58.918Z,27.80
2022-11-06T02:48:34.343Z,27.10
2022-11-06T02:51:09.355Z,24.10
2022-11-06T02:53:43.843Z,26.40
2022-11-06T02:56:18.527Z,29.60
2022-11-06T02:58:53.850Z,29.70
2022-11-06T03:01:32.081Z,28.50
2022-11-06T03:04:09.384Z,28.30
2022-11-06T03:06:46.798Z,28.80
2022-11-06T03:09:22.461Z,26.40
2022-11-06T03:11:59.467Z,28.40
2022-11-06T03:14:37.036Z,24.70
2022-11-06T03:17:13.615Z,26.20
2022-11-06T03:19:49.523Z,25.40
2022-11-06T03:22:28.286Z,27.50
2022-11-06T03:25:04.344Z,27.70
2022-11-06T03:27:40.082Z,27.60
2022-11-06T03:30:16.789Z,23.30
2022-11-06T03:32:52.224Z,25.20
2022-11-06T03:35:27.919Z,24.00
2022-11-06T03:38:02.698Z,24.40
2022-11-06T03:40:37.096Z,24.80
2022-11-06T03:43:11.451Z,22.40
2022-11-06T03:45:46.560Z,22.70
2022-11-06T03:48:22.837Z,23.50
2022-11-06T03:51:00.862Z,25.30
2022-11-06T03:53:38.693Z,23.70
2022-11-06T03:56:14.896Z,24.80
2022-11-06T03:58:48.828Z,20.50
2022-11-06T04:01:26.104Z,23.10
2022-11-06T04:04:01.574Z,22.40
2022-11-06T04:06:37.248Z,24.80
2022-11-06T04:09:28.349Z,23.00
2022-11-06T04:12:20.666Z,23.10
2022-11-06T04:14:54.563Z,23.50
2022-11-06T04:17:29.705Z,23.00
2022-11-06T04:20:06.929Z,21.80
2022-11-06T04:22:48.933Z,24.20
2022-11-06T04:25:45.974Z,21.30
2022-11-06T04:28:25.824Z,22.90
2022-11-06T04:31:02.204Z,23.50
2022-11-06T04:33:38.961Z,20.60
2022-11-06T04:36:17.716Z,21.80
2022-11-06T04:38:55.182Z,21.00
2022-11-06T04:41:34.831Z,21.60
2022-11-06T04:44:10.714Z,20.50
2022-11-06T04:46:48.795Z,20.30
2022-11-06T04:49:21.461Z,22.20
2022-11-06T04:51:54.300Z,21.30
2022-11-06T04:54:29.117Z,16.70
2022-11-06T04:57:02.185Z,18.10
2022-11-06T04:59:37.258Z,18.40
2022-11-06T05:02:10.020Z,21.20
2022-11-06T05:04:42.876Z,20.40
2022-11-06T05:09:31.605Z,16.90
2022-11-06T05:12:06.637Z,22.00
2022-11-06T05:14:38.989Z,17.10
2022-11-06T05:17:11.286Z,18.80
2022-11-06T05:19:43.713Z,19.80
2022-11-06T05:22:33.799Z,18.40
2022-11-06T05:25:06.533Z,19.60
2022-11-06T05:27:39.090Z,18.90
2022-11-06T05:30:13.086Z,18.60
2022-11-06T05:32:45.585Z,20.30
2022-11-06T05:35:18.255Z,18.20
2022-11-06T05:37:50.773Z,19.10
2022-11-06T05:42:55.162Z,17.00
2022-11-06T05:45:27.582Z,18.50
2022-11-06T05:47:59.936Z,18.60
2022-11-06T05:50:32.413Z,18.10
2022-11-06T05:55:35.651Z,18.10
2022-11-06T05:58:07.966Z,16.30
2022-11-06T06:00:40.491Z,16.90
2022-11-06T06:05:44.996Z,18.00
2022-11-06T06:10:50.104Z,16.70
2022-11-06T06:13:40.216Z,16.20
2022-11-06T06:18:43.865Z,17.20
2022-11-06T06:23:47.197Z,15.90
2022-11-06T06:26:19.817Z,16.10
2022-11-06T06:28:52.544Z,16.40
2022-11-06T06:31:25.001Z,15.30
2022-11-06T06:33:57.407Z,15.20
2022-11-06T06:36:29.899Z,15.50
2022-11-06T06:41:35.515Z,13.40
2022-11-06T06:44:07.951Z,14.60
2022-11-06T06:49:11.706Z,14.70
2022-11-06T06:51:43.953Z,14.70
2022-11-06T06:54:16.491Z,15.50
2022-11-06T06:59:20.101Z,14.20
2022-11-06T07:01:52.609Z,14.00
2022-11-06T07:10:00.888Z,14.40
2022-11-06T07:15:04.152Z,14.60
2022-11-06T07:17:36.636Z,15.10
2022-11-06T07:20:11.203Z,14.50
2022-11-06T07:22:43.582Z,13.90
2022-11-06T07:25:16.517Z,12.10
2022-11-06T07:27:49.090Z,15.80
2022-11-06T07:30:21.586Z,13.40
2022-11-06T07:35:24.762Z,14.00
2022-11-06T07:37:57.350Z,14.40
2022-11-06T07:43:06.277Z,14.70
2022-11-06T07:45:39.270Z,13.40
2022-11-06T07:48:12.664Z,13.40
2022-11-06T07:50:45.305Z,14.20
2022-11-06T07:53:17.681Z,13.90
2022-11-06T07:58:24.163Z,12.70
2022-11-06T08:00:57.887Z,12.00
2022-11-06T08:03:31.119Z,13.00
2022-11-06T08:06:06.151Z,13.90
2022-11-06T08:08:38.761Z,12.60
2022-11-06T08:11:12.833Z,12.30
2022-11-06T08:13:45.121Z,11.30
2022-11-06T08:16:18.048Z,12.30
2022-11-06T08:18:50.335Z,12.20
2022-11-06T08:21:22.627Z,13.40
2022-11-06T08:23:54.937Z,10.80
2022-11-06T08:26:27.707Z,11.60
2022-11-06T08:29:00.327Z,11.30
2022-11-06T08:31:32.767Z,11.60
2022-11-06T08:34:05.510Z,12.20
2022-11-06T08:36:43.625Z,11.20
2022-11-06T08:39:18.009Z,11.50
2022-11-06T08:41:50.223Z,11.00
2022-11-06T08:44:22.561Z,12.50
2022-11-06T08:49:25.748Z,13.60
2022-11-06T08:51:58.411Z,13.70
2022-11-06T08:57:02.405Z,10.90
2022-11-06T08:59:34.833Z,11.30
2022-11-06T09:02:07.150Z,11.40
2022-11-06T09:04:41.482Z,11.00
2022-11-06T09:07:14.226Z,11.50
2022-11-06T09:09:46.529Z,11.80
2022-11-06T09:12:18.888Z,11.60
2022-11-06T09:14:51.164Z,12.60
2022-11-06T09:17:24.579Z,12.60
2022-11-06T09:19:56.925Z,10.50
2022-11-06T09:22:29.322Z,11.90
2022-11-06T09:25:04.314Z,11.40
2022-11-06T09:27:44.695Z,13.20
2022-11-06T09:30:19.422Z,12.70
2022-11-06T09:32:53.475Z,12.50
2022-11-06T09:35:27.557Z,12.70
2022-11-06T09:38:03.979Z,11.40
2022-11-06T09:40:38.140Z,12.20
2022-11-06T09:43:50.219Z,13.20
2022-11-06T09:46:24.579Z,10.50
2022-11-06T09:49:00.224Z,11.40
2022-11-06T09:51:43.051Z,12.60
2022-11-06T09:54:18.118Z,12.40
2022-11-06T09:56:54.923Z,12.10
2022-11-06T09:59:27.907Z,12.20
2022-11-06T10:02:02.805Z,11.80
2022-11-06T10:04:42.566Z,16.30
2022-11-06T10:07:24.198Z,14.30
2022-11-06T10:09:56.614Z,13.40
2022-11-06T10:15:10.196Z,11.40
2022-11-06T10:17:51.844Z,12.60
2022-11-06T10:20:30.684Z,13.00
2022-11-06T10:23:11.864Z,12.30
2022-11-06T10:25:52.140Z,12.50
2022-11-06T10:28:38.602Z,11.40
2022-11-06T10:31:21.155Z,13.70
2022-11-06T10:33:58.425Z,13.40
2022-11-06T10:36:38.235Z,14.10
2022-11-06T10:39:17.269Z,11.60
2022-11-06T10:41:54.477Z,12.10
2022-11-06T10:44:29.097Z,11.60
2022-11-06T10:47:08.178Z,13.40
2022-11-06T10:49:46.051Z,12.30
2022-11-06T10:52:31.604Z,12.50
2022-11-06T10:55:37.013Z,11.80
2022-11-06T10:58:11.494Z,13.70
2022-11-06T11:00:44.936Z,13.00
2022-11-06T11:03:25.702Z,12.80
2022-11-06T11:05:58.090Z,12.60
2022-11-06T11:08:40.418Z,11.00
2022-11-06T11:11:29.445Z,13.20
2022-11-06T11:14:23.984Z,11.20
2022-11-06T11:16:56.469Z,11.40
2022-11-06T11:22:01.717Z,12.00
2022-11-06T11:24:34.080Z,11.10
2022-11-06T11:27:07.697Z,10.90
2022-11-06T11:29:48.456Z,12.20
2022-11-06T11:32:22.015Z,10.80
2022-11-06T11:34:57.087Z,11.00
2022-11-06T11:37:31.290Z,11.90
2022-11-06T11:40:23.120Z,10.80
2022-11-06T11:42:55.394Z,10.10
2022-11-06T11:45:27.668Z,9.90
2022-11-06T11:48:15.175Z,10.30
2022-11-06T11:50:47.679Z,10.10
2022-11-06T11:53:23.372Z,10.00
2022-11-06T11:55:56.941Z,9.60
2022-11-06T11:58:30.379Z,10.30
2022-11-06T12:01:05.208Z,10.30
2022-11-06T12:03:41.267Z,9.90
2022-11-06T12:06:15.552Z,11.30
2022-11-06T12:08:51.016Z,10.10
2022-11-06T12:11:26.789Z,9.00
2022-11-06T12:14:31.670Z,9.70
2022-11-06T12:17:10.317Z,10.50
2022-11-06T12:19:45.349Z,9.90
2022-11-06T12:22:22.863Z,9.70
2022-11-06T12:24:58.018Z,10.40
2022-11-06T12:27:32.963Z,9.40
2022-11-06T12:30:13.226Z,9.90
2022-11-06T12:33:02.813Z,9.30
2022-11-06T12:35:38.437Z,9.90
2022-11-06T12:38:16.843Z,10.40
2022-11-06T12:40:52.371Z,9.80
2022-11-06T12:43:30.393Z,10.30
2022-11-06T12:46:15.501Z,9.30
2022-11-06T12:49:06.360Z,10.00
2022-11-06T12:51:45.819Z,9.90
2022-11-06T12:54:31.214Z,9.80
2022-11-06T12:57:10.907Z,9.10
2022-11-06T12:59:49.972Z,10.70
2022-11-06T13:02:31.903Z,9.50
2022-11-06T13:05:06.975Z,9.50
2022-11-06T13:07:47.068Z,9.30
2022-11-06T13:10:30.030Z,10.40
2022-11-06T13:13:18.051Z,8.90
2022-11-06T13:15:53.376Z,9.20
2022-11-06T13:18:29.697Z,9.60
2022-11-06T13:21:05.439Z,9.70
2022-11-06T13:23:40.582Z,9.50
2022-11-06T13:26:17.588Z,9.40
2022-11-06T13:28:56.101Z,9.90
2022-11-06T13:31:32.252Z,9.70
2022-11-06T13:34:05.406Z,9.10
2022-11-06T13:36:40.233Z,10.10
2022-11-06T13:39:19.494Z,9.40
2022-11-06T13:41:51.853Z,8.90
2022-11-06T13:46:59.313Z,10.40
2022-11-06T13:49:35.832Z,10.50
2022-11-06T13:52:14.462Z,9.70
2022-11-06T13:55:00.488Z,9.30
2022-11-06T13:57:44.027Z,8.90
2022-11-06T14:00:23.966Z,9.30
2022-11-06T14:03:26.123Z,9.00
2022-11-06T14:06:02.482Z,9.70
2022-11-06T14:08:40.223Z,10.20
2022-11-06T14:11:16.901Z,9.30
2022-11-06T14:14:02.576Z,8.90
2022-11-06T14:16:37.451Z,9.80
2022-11-06T14:19:14.986Z,9.20
2022-11-06T14:21:50.961Z,9.30
2022-11-06T14:24:42.773Z,10.10
2022-11-06T14:27:36.345Z,11.20
2022-11-06T14:30:19.681Z,8.90
2022-11-06T14:32:56.229Z,8.60
2022-11-06T14:35:51.406Z,9.80
2022-11-06T14:38:37.719Z,9.20
2022-11-06T14:41:37.856Z,10.30
2022-11-06T14:44:19.879Z,10.50
2022-11-06T14:46:54.795Z,9.90
2022-11-06T14:49:34.676Z,9.90
2022-11-06T14:52:09.303Z,9.70
2022-11-06T14:54:45.468Z,9.80
2022-11-06T14:57:19.840Z,9.90
2022-11-06T14:59:52.066Z,9.20
2022-11-06T15:02:26.901Z,10.30
2022-11-06T15:05:01.977Z,9.20
2022-11-06T15:08:08.599Z,9.80
2022-11-06T15:10:55.971Z,9.90
2022-11-06T15:13:32.869Z,10.10
2022-11-06T15:16:14.126Z,11.40
2022-11-06T15:18:47.899Z,10.50
2022-11-06T15:21:24.059Z,10.00
2022-11-06T15:24:05.885Z,9.70
2022-11-06T15:26:41.941Z,10.50
2022-11-06T15:29:24.090Z,10.10
2022-11-06T15:31:59.749Z,10.70
2022-11-06T15:34:38.012Z,10.00
2022-11-06T15:37:16.502Z,10.00
2022-11-06T15:40:00.909Z,10.00
2022-11-06T15:42:35.515Z,9.80
2022-11-06T15:45:21.891Z,9.10
2022-11-06T15:48:00.174Z,10.70
2022-11-06T15:50:35.560Z,9.40
2022-11-06T15:53:21.796Z,9.80
2022-11-06T15:55:57.192Z,9.30
2022-11-06T15:58:32.806Z,9.20
2022-11-06T16:01:08.694Z,10.10
2022-11-06T16:03:50.112Z,10.50
2022-11-06T16:06:23.157Z,9.50
2022-11-06T16:08:55.720Z,9.40
2022-11-06T16:13:58.850Z,10.30
2022-11-06T16:19:23.472Z,9.40
2022-11-06T16:21:58.674Z,9.50
2022-11-06T16:24:40.483Z,9.90
2022-11-06T16:27:16.016Z,9.00
2022-11-06T16:29:50.834Z,9.10
2022-11-06T16:32:25.425Z,9.90
2022-11-06T16:35:00.305Z,9.50
2022-11-06T16:37:48.648Z,9.40
2022-11-06T16:40:52.670Z,9.70
2022-11-06T16:43:25.575Z,10.00
2022-11-06T16:46:05.499Z,9.70
2022-11-06T16:48:41.886Z,8.40
2022-11-06T16:51:17.325Z,7.70
2022-11-06T16:54:00.502Z,8.90
2022-11-06T16:56:37.648Z,9.30
2022-11-06T16:59:10.987Z,9.10
2022-11-06T17:01:46.790Z,9.40
2022-11-06T17:04:26.376Z,9.10
2022-11-06T17:06:59.710Z,8.60
2022-11-06T17:09:37.619Z,9.70
2022-11-06T17:12:14.655Z,8.70
2022-11-06T17:14:48.852Z,9.10
2022-11-06T17:17:34.257Z,8.40
2022-11-06T17:20:21.053Z,8.60
2022-11-06T17:22:57.011Z,7.90
2022-11-06T17:25:30.273Z,7.40
2022-11-06T17:28:05.107Z,8.20
2022-11-06T17:30:39.242Z,8.00
2022-11-06T17:33:14.224Z,7.80
2022-11-06T17:35:48.204Z,7.40
2022-11-06T17:38:22.932Z,7.40
2022-11-06T17:40:57.225Z,8.10
2022-11-06T17:43:31.890Z,8.60
2022-11-06T17:46:06.052Z,8.10
2022-11-06T17:48:40.913Z,8.50
2022-11-06T17:51:31.264Z,6.90
2022-11-06T17:54:05.350Z,8.40
2022-11-06T17:56:39.270Z,8.00
2022-11-06T17:59:16.557Z,7.40
2022-11-06T18:01:51.381Z,6.30
2022-11-06T18:13:42.887Z,6.40
2022-11-06T18:18:53.376Z,5.90
2022-11-06T18:21:26.177Z,6.70
2022-11-06T18:24:01.319Z,7.30
2022-11-06T18:26:33.604Z,7.60
2022-11-06T18:31:38.500Z,5.40
2022-11-06T18:34:20.208Z,6.20
2022-11-06T18:36:53.542Z,5.20
2022-11-06T18:39:25.993Z,5.60
2022-11-06T18:44:32.653Z,5.70
2022-11-06T18:47:06.429Z,5.80
2022-11-06T18:49:48.978Z,5.70
2022-11-06T18:52:44.497Z,6.60
2022-11-06T18:55:15.795Z,6.60
2022-11-06T18:57:48.194Z,5.80
2022-11-06T19:00:24.771Z,5.50
2022-11-06T19:02:59.091Z,5.20
2022-11-06T19:05:32.941Z,6.20
2022-11-06T19:08:05.888Z,5.80
2022-11-06T19:10:40.271Z,5.30
2022-11-06T19:13:12.682Z,5.60
2022-11-06T19:18:17.094Z,5.90
2022-11-06T19:20:49.680Z,6.40
2022-11-06T19:23:23.765Z,6.60
2022-11-06T19:26:10.360Z,5.30
2022-11-06T19:28:53.079Z,6.00
2022-11-06T19:31:29.538Z,6.30
2022-11-06T19:34:03.593Z,7.00
2022-11-06T19:36:37.279Z,6.50
2022-11-06T19:39:11.913Z,6.70
2022-11-06T19:48:19.004Z,6.10
2022-11-06T19:50:59.550Z,5.80
2022-11-06T19:53:34.382Z,5.80
2022-11-06T19:56:08.565Z,6.40
2022-11-06T19:58:40.917Z,6.10
2022-11-06T20:01:14.321Z,5.70
2022-11-06T20:03:49.761Z,5.60
2022-11-06T20:06:23.009Z,7.20
2022-11-06T20:08:56.927Z,6.60
2022-11-06T20:11:30.420Z,6.80
2022-11-06T20:14:02.685Z,6.20
2022-11-06T20:16:37.510Z,5.50
2022-11-06T20:19:16.162Z,5.80
2022-11-06T20:21:50.629Z,6.60
2022-11-06T20:24:24.912Z,6.90
2022-11-06T20:27:11.026Z,5.20
2022-11-06T20:29:44.404Z,5.80
2022-11-06T20:32:19.235Z,6.50
2022-11-06T20:34:51.675Z,5.60
2022-11-06T20:37:24.324Z,5.80
2022-11-06T20:39:59.054Z,6.00
2022-11-06T20:42:33.669Z,5.50
2022-11-06T20:45:06.610Z,6.10
2022-11-06T20:47:40.199Z,5.00
2022-11-06T20:50:15.576Z,6.40
2022-11-06T20:52:48.442Z,5.60
2022-11-06T20:55:20.871Z,5.10
2022-11-06T21:00:24.131Z,5.20
2022-11-06T21:05:36.253Z,6.10
2022-11-06T21:08:08.672Z,5.50
2022-11-06T21:10:41.031Z,5.70
2022-11-06T21:13:13.519Z,5.40
2022-11-06T21:15:48.366Z,5.60
2022-11-06T21:18:21.760Z,5.30
2022-11-06T21:20:54.305Z,5.10
2022-11-06T21:23:46.898Z,5.50
2022-11-06T21:26:24.904Z,4.90
2022-11-06T21:28:57.540Z,5.20
2022-11-06T21:31:32.169Z,5.80
2022-11-06T21:34:08.792Z,5.30
2022-11-06T21:36:41.223Z,4.90
2022-11-06T21:39:15.158Z,4.70
2022-11-06T21:41:50.090Z,5.30
2022-11-06T21:44:22.449Z,4.70
2022-11-06T21:46:54.885Z,4.50
2022-11-06T21:49:29.996Z,5.30
2022-11-06T21:52:16.106Z,5.00
2022-11-06T21:55:05.837Z,5.20
2022-11-06T21:57:38.361Z,4.50
2022-11-06T22:00:15.300Z,5.30
2022-11-06T22:03:05.644Z,4.30
2022-11-06T22:05:38.187Z,4.40
2022-11-06T22:10:44.311Z,4.90
2022-11-06T22:13:17.094Z,3.70
2022-11-06T22:15:49.735Z,5.10
2022-11-06T22:20:52.672Z,5.00
2022-11-06T22:23:24.953Z,5.20
2022-11-06T22:25:57.339Z,4.80
2022-11-06T22:28:31.995Z,4.70
2022-11-06T22:31:05.385Z,4.70
2022-11-06T22:33:38.095Z,4.50
2022-11-06T22:36:13.361Z,5.10
2022-11-06T22:38:46.741Z,4.40
2022-11-06T22:41:21.324Z,4.70
2022-11-06T22:43:53.843Z,4.60
2022-11-06T22:46:26.493Z,5.30
2022-11-06T22:48:59.331Z,4.60
2022-11-06T22:51:32.850Z,4.20
2022-11-06T22:54:05.595Z,4.10
2022-11-06T22:56:37.942Z,5.00
2022-11-06T22:59:11.970Z,5.30
2022-11-06T23:01:44.408Z,4.50
2022-11-06T23:04:17.569Z,4.30
2022-11-06T23:06:49.860Z,4.70
2022-11-06T23:09:22.226Z,4.60
2022-11-06T23:11:56.747Z,4.00
2022-11-06T23:14:29.435Z,4.60
2022-11-06T23:19:34.312Z,4.10
2022-11-06T23:22:24.154Z,4.40
2022-11-06T23:24:56.460Z,4.80
2022-11-06T23:27:28.972Z,4.60
2022-11-06T23:30:01.689Z,5.10
2022-11-06T23:32:35.597Z,4.70
2022-11-06T23:35:13.265Z,4.50
2022-11-06T23:37:47.420Z,5.40
2022-11-06T23:40:19.939Z,5.10
2022-11-06T23:45:40.661Z,4.90
2022-11-06T23:48:15.762Z,4.40
2022-11-06T23:50:48.133Z,5.10
2022-11-06T23:53:20.518Z,4.50
2022-11-06T23:55:52.937Z,4.90
